• Join FlightAware (Why Join?)
  • Login
  • US Flag 
11:04AM EDT


 

Airport Tracker/Info


-or-


 

Live Flight TrackerFlight Track Log ✈ N61971 ✈ 09-Mar-2014 ✈ KOQU - KHWV

Flight Track Log - Related Links

Times and Time Zones

All times are in EDT time to prevent confusion due to time zone crossing. See the N61971 flight status page for this flight to view local times or setup timezone preferences in your user account.

Time Position Orientation Groundspeed Altitude Reporting Facility
EDT Latitude Longitude Course Direction KTS MPH feet Rate Location/Type
02:50PM 41.5203 -71.5333 236° Southwest 70 81 4,300  Level Boston Center
02:51PM 41.5092 -71.5553 236° Southwest 76 87 4,500 180 Climbing Boston Center
02:52PM 41.5058 -71.5667 249° West 81 93 4,600 60 Climbing Boston Center
02:52PM 41.4967 -71.5853 237° Southwest 95 109 4,600  Level Boston Center
02:53PM 41.4933 -71.5972 250° West 93 107 4,600  Level Boston Center
02:53PM 41.4814 -71.6169 231° Southwest 96 110 4,600 -120 Level Boston Center
02:54PM 41.4772 -71.6261 239° Southwest 95 109 4,500  Descending Boston Center
02:54PM 41.4667 -71.6461 235° Southwest 95 109 4,600 60 Climbing Boston Center
02:55PM 41.4619 -71.6539 231° Southwest 93 107 4,600 -120 Level Boston Center
02:55PM 41.4500 -71.6744 232° Southwest 98 113 4,500  Descending Boston Center
02:56PM 41.4453 -71.6864 242° Southwest 98 113 4,600 60 Climbing Boston Center
02:57PM 41.4289 -71.7142 232° Southwest 95 109 4,600 -60 Level Boston Center
02:58PM 41.4175 -71.7372 237° Southwest 102 117 4,500  Descending Boston Center
02:58PM 41.4142 -71.7439 236° Southwest 95 109 4,600 60 Climbing Boston Center
02:59PM 41.4033 -71.7636 234° Southwest 91 105 4,600  Level Boston Center
02:59PM 41.3978 -71.7731 232° Southwest 90 104 4,600  Level Boston Center
03:00PM 41.3864 -71.7919 231° Southwest 93 107 4,600  Level Boston Center
03:00PM 41.3825 -71.8000 237° Southwest 89 102 4,600 -120 Level Boston Center
03:01PM 41.3728 -71.8156 230° Southwest 85 98 4,500 -120 Descending Boston Center
03:01PM 41.3681 -71.8253 237° Southwest 86 99 4,500 60 Level Boston Center
03:02PM 41.3575 -71.8472 237° Southwest 89 102 4,600 60 Climbing Boston Center
03:02PM 41.3542 -71.8511 221° Southwest 87 100 4,600  Level Boston Center
03:03PM 41.3389 -71.8819 237° Southwest 92 106 4,600 -60 Level Boston Center
03:04PM 41.3261 -71.9044 233° Southwest 96 110 4,500 -120 Descending Boston Center
03:04PM 41.3239 -71.9100 242° Southwest 94 108 4,500  Level Boston Center
03:05PM 41.3114 -71.9336 235° Southwest 89 102 4,500 60 Level Boston Center
03:05PM 41.3089 -71.9367 223° Southwest 91 105 4,600  Climbing Boston Center
03:06PM 41.2972 -71.9597 236° Southwest 89 102 4,500 -120 Descending Boston Center
03:06PM 41.2931 -71.9644 220° Southwest 88 101 4,500 60 Level Boston Center
03:07PM 41.2828 -71.9861 238° Southwest 88 101 4,600  Climbing Boston Center
03:07PM 41.2792 -71.9908 225° Southwest 88 101 4,500 -120 Descending Boston Center
03:08PM 41.2686 -72.0125 237° Southwest 88 101 4,500 60 Level Boston Center
03:08PM 41.2678 -72.0136 225° Southwest 88 101 4,600 60 Climbing Boston Center
03:09PM 41.2539 -72.0414 236° Southwest 92 106 4,600 60 Level Boston Center
03:09PM 41.2500 -72.0458 221° Southwest 91 105 4,700  Climbing Boston Center
03:10PM 41.2364 -72.0722 236° Southwest 93 107 4,600  Descending Boston Center
03:10PM 41.2344 -72.0742 217° Southwest 93 107 4,700 60 Climbing Boston Center
03:11PM 41.2197 -72.1039 237° Southwest 98 113 4,700 -60 Level Boston Center
03:12PM 41.2047 -72.1336 236° Southwest 96 110 4,600 -60 Descending Boston Center
03:13PM 41.1881 -72.1625 233° Southwest 99 114 4,600  Level Boston Center
03:14PM 41.1744 -72.1897 236° Southwest 89 102 4,600  Level Boston Center
03:15PM 41.1597 -72.2156 233° Southwest 88 101 4,600  Level Boston Center
03:16PM 41.1467 -72.2428 238° Southwest 88 101 4,600  Level Boston Center
03:17PM 41.1336 -72.2689 236° Southwest 87 100 4,600  Level Boston Center
03:18PM 41.1167 -72.3025 236° Southwest 91 105 4,600  Level Boston Center
03:19PM 41.1008 -72.3294 232° Southwest 93 107 4,600  Level Boston Center
03:20PM 41.0856 -72.3558 232° Southwest 90 104 4,600  Level Boston Center
03:21PM 41.0703 -72.3825 233° Southwest 91 105 4,600  Level Boston Center
03:22PM 41.0667 -72.4000 255° West 94 108 4,600 -120 Level New York TRACON
03:23PM 41.0500 -72.4333 236° Southwest 92 106 4,500 -60 Descending New York TRACON
03:24PM 41.0333 -72.4500 217° Southwest 90 104 4,500  Level New York TRACON
03:25PM 41.0167 -72.4833 236° Southwest 96 110 4,500  Level New York TRACON
03:26PM 41.0000 -72.5167 236° Southwest 94 108 4,500  Level New York TRACON
03:27PM 40.9833 -72.5333 217° Southwest 92 106 4,500  Level New York TRACON
03:28PM 40.9833 -72.5667 270° West 87 100 4,600  Climbing New York TRACON
03:29PM 40.9667 -72.5833 217° Southwest 91 105 4,600 -60 Level New York TRACON
03:30PM 40.9500 -72.6167 237° Southwest 92 106 4,500 -60 Descending New York TRACON
03:31PM 40.9333 -72.6500 237° Southwest 90 104 4,500 -180 Level New York TRACON
03:33PM 40.9153 -72.6900 239° Southwest 90 104 4,100 -300 Descending Boston Center
03:34PM 40.9019 -72.7192 239° Southwest 94 108 3,700 -540 Descending Boston Center
03:35PM 40.8839 -72.7506 233° Southwest 93 107 3,100 -600 Descending Boston Center
03:36PM 40.8719 -72.7786 241° Southwest 90 104 2,600 -480 Descending Boston Center
03:37PM 40.8581 -72.8064 237° Southwest 90 104 2,200 -480 Descending Boston Center
03:38PM 40.8422 -72.8350 234° Southwest 94 108 1,700 -300 Descending Boston Center
03:39PM 40.8242 -72.8592 225° Southwest 94 108 1,600 -120 Descending Boston Center
03:40PM 40.8097 -72.8844 233° Southwest 90 104 1,500 -300 Descending Boston Center
03:41PM 40.8125 -72.8961 287° West 110 127 1,100 -300 Descending Boston Center
03:42PM 40.8056 -72.8636 106° East 99 114 900 -300 Descending Boston Center
03:43PM 40.8064 -72.8525 84° East 84 97 600 -360 Descending Boston Center
03:44PM 40.8194 -72.8664 321° Northwest 69 79 200 -420 Descending Boston Center